Time;durP1;ratioP1;P1;durP2;ratioP2;P2;SDS_P1;SDS_P2;PMS_P1;PMS_P2;Temp;Humidity;BMP_temperature;BMP_pressure;BME280_temperature;BME280_humidity;BME280_pressure;Samples;Min_cycle;Max_cycle;Signal;HPM_P1;HPM_P2
2021/05/18 00:00:23;;;;;;;20.73;10.80;;;9.80;99.90;;;;;;4322365;33;20208;-66
2021/05/18 00:02:50;;;;;;;25.03;12.30;;;9.70;99.90;;;;;;4343465;33;20159;-64
2021/05/18 00:05:18;;;;;;;24.93;12.73;;;9.70;99.90;;;;;;4332199;33;20264;-64
2021/05/18 00:07:52;;;;;;;24.60;11.47;;;9.70;99.90;;;;;;4343280;33;20159;-65
2021/05/18 00:13:07;;;;;;;22.50;11.20;;;9.70;99.90;;;;;;4308331;33;20154;-65
2021/05/18 00:15:34;;;;;;;18.90;11.77;;;9.60;99.90;;;;;;4305900;33;20240;-64
2021/05/18 00:18:00;;;;;;;25.47;12.23;;;9.60;99.90;;;;;;4303572;33;20253;-65
2021/05/18 00:20:27;;;;;;;21.10;12.70;;;9.60;99.90;;;;;;4309496;33;20242;-63
2021/05/18 00:22:53;;;;;;;25.03;14.17;;;9.50;99.90;;;;;;4315498;33;20601;-63
2021/05/18 00:25:20;;;;;;;20.27;11.87;;;9.50;99.90;;;;;;4309977;33;20165;-64
2021/05/18 00:27:47;;;;;;;23.00;13.23;;;9.50;99.90;;;;;;4308454;33;20575;-64
2021/05/18 00:30:15;;;;;;;25.43;14.50;;;9.50;99.90;;;;;;4310140;33;20233;-64
2021/05/18 00:32:41;;;;;;;22.63;13.13;;;9.50;99.90;;;;;;4306028;33;20161;-65
2021/05/18 00:35:10;;;;;;;23.10;13.53;;;9.50;99.90;;;;;;4309842;33;20226;-64
2021/05/18 00:37:37;;;;;;;26.87;13.77;;;9.50;99.90;;;;;;4306656;33;20561;-65
2021/05/18 00:40:06;;;;;;;31.07;13.37;;;9.40;99.90;;;;;;4315218;33;20152;-64
2021/05/18 00:42:45;;;;;;;25.97;13.30;;;9.40;99.90;;;;;;4314832;33;20675;-65
2021/05/18 00:45:13;;;;;;;29.23;14.33;;;9.40;99.90;;;;;;4317204;33;20595;-64
2021/05/18 00:47:39;;;;;;;22.37;13.73;;;9.40;99.90;;;;;;4307400;33;20192;-64
2021/05/18 00:50:06;;;;;;;27.80;14.30;;;9.40;99.90;;;;;;4315955;33;20169;-64
2021/05/18 00:52:33;;;;;;;27.77;15.13;;;9.40;99.90;;;;;;4342538;33;20323;-64
2021/05/18 00:55:04;;;;;;;22.83;14.07;;;9.40;99.90;;;;;;4347470;33;20251;-63
2021/05/18 01:00:17;;;;;;;27.00;14.70;;;9.50;99.90;;;;;;4346582;33;20203;-64
2021/05/18 01:02:47;;;;;;;25.37;14.93;;;9.50;99.90;;;;;;4345983;33;20164;-63
2021/05/18 01:05:18;;;;;;;23.07;15.17;;;9.50;99.90;;;;;;4346040;33;20180;-64
2021/05/18 01:07:45;;;;;;;35.77;15.03;;;9.60;99.90;;;;;;4345871;33;20165;-64
2021/05/18 01:10:13;;;;;;;26.17;14.93;;;9.60;99.90;;;;;;4346425;33;20300;-65
2021/05/18 01:12:39;;;;;;;28.30;15.43;;;9.60;99.90;;;;;;4350274;32;20241;-64
2021/05/18 01:15:07;;;;;;;25.37;15.60;;;9.70;99.90;;;;;;4346006;33;20271;-64
2021/05/18 01:17:34;;;;;;;22.57;14.50;;;9.70;99.90;;;;;;4341281;33;20230;-63
2021/05/18 01:20:08;;;;;;;25.27;15.23;;;9.80;99.90;;;;;;4354519;32;20167;-64
2021/05/18 01:22:35;;;;;;;25.63;14.83;;;9.70;99.90;;;;;;4357304;32;20519;-64
2021/05/18 01:25:02;;;;;;;33.57;15.67;;;9.80;99.90;;;;;;4351479;33;20453;-63
2021/05/18 01:27:28;;;;;;;30.13;14.60;;;9.80;99.90;;;;;;4342609;33;20184;-64
2021/05/18 01:29:54;;;;;;;29.63;14.40;;;9.80;99.90;;;;;;4347268;33;20597;-64
2021/05/18 01:32:24;;;;;;;29.37;15.67;;;9.80;99.90;;;;;;4350053;32;20150;-63
2021/05/18 01:34:50;;;;;;;24.80;15.67;;;9.80;99.90;;;;;;4347503;33;20151;-64
2021/05/18 01:37:17;;;;;;;25.90;15.83;;;9.80;99.90;;;;;;4345391;33;20229;-63
2021/05/18 01:39:56;;;;;;;38.07;17.63;;;9.80;99.90;;;;;;4346381;33;20511;-63
2021/05/18 01:45:08;;;;;;;31.60;16.20;;;9.90;99.90;;;;;;4346784;33;20190;-64
2021/05/18 01:47:36;;;;;;;37.63;17.03;;;9.90;99.90;;;;;;4344494;33;20327;-64
2021/05/18 01:50:03;;;;;;;35.80;16.73;;;10.00;99.90;;;;;;4339981;32;21324;-64
2021/05/18 01:52:32;;;;;;;28.23;14.87;;;9.90;99.90;;;;;;4347728;33;20213;-63
2021/05/18 01:54:59;;;;;;;25.00;15.03;;;9.90;99.90;;;;;;4346629;33;20203;-64
2021/05/18 01:57:27;;;;;;;28.00;15.03;;;9.90;99.90;;;;;;4347343;32;20231;-64
2021/05/18 01:59:53;;;;;;;27.23;15.33;;;10.00;99.90;;;;;;4346983;33;20708;-63
2021/05/18 02:02:20;;;;;;;30.43;17.80;;;10.10;99.90;;;;;;4355001;32;20162;-64
2021/05/18 02:04:50;;;;;;;28.57;16.30;;;10.00;99.90;;;;;;4346280;32;20483;-65
2021/05/18 02:07:20;;;;;;;32.43;17.30;;;10.10;99.90;;;;;;4345235;33;20153;-63
2021/05/18 02:09:47;;;;;;;32.50;15.60;;;10.10;99.90;;;;;;4349073;33;20174;-65
2021/05/18 02:12:16;;;;;;;33.90;16.50;;;10.10;99.90;;;;;;4332981;33;20225;-63
2021/05/18 02:14:45;;;;;;;28.47;16.90;;;10.10;99.90;;;;;;4352734;32;20224;-64
2021/05/18 02:17:17;;;;;;;25.00;17.10;;;10.10;99.90;;;;;;4355496;33;20220;-63
2021/05/18 02:19:55;;;;;;;32.80;16.97;;;10.10;99.90;;;;;;4346402;33;20164;-64
2021/05/18 02:25:04;;;;;;;25.17;15.60;;;10.20;99.90;;;;;;4346062;33;20206;-63
2021/05/18 02:27:31;;;;;;;32.40;16.23;;;10.10;99.90;;;;;;4345831;33;20164;-63
2021/05/18 02:29:58;;;;;;;25.57;15.83;;;10.20;99.90;;;;;;4344490;33;20208;-64
2021/05/18 02:32:26;;;;;;;32.17;17.13;;;10.20;99.90;;;;;;4345363;33;20189;-64
2021/05/18 02:34:52;;;;;;;29.13;16.17;;;10.20;99.90;;;;;;4345103;33;20275;-64
2021/05/18 02:37:18;;;;;;;28.30;16.83;;;10.30;99.90;;;;;;4360688;32;20161;-63
2021/05/18 02:39:45;;;;;;;32.00;17.20;;;10.20;99.90;;;;;;4349163;32;20158;-64
2021/05/18 02:42:11;;;;;;;31.50;16.63;;;10.20;99.90;;;;;;4345203;33;20153;-64
2021/05/18 02:44:43;;;;;;;27.57;16.23;;;10.20;99.90;;;;;;4351215;32;20232;-64
2021/05/18 02:49:53;;;;;;;30.20;17.77;;;10.30;99.90;;;;;;4349101;33;20196;-64
2021/05/18 02:52:21;;;;;;;28.23;18.57;;;10.30;99.90;;;;;;4345770;33;20524;-64
2021/05/18 02:54:50;;;;;;;34.13;18.87;;;10.30;99.90;;;;;;4345852;33;20153;-64
2021/05/18 02:57:30;;;;;;;30.90;17.50;;;10.20;99.90;;;;;;4347829;33;20153;-64
2021/05/18 02:59:59;;;;;;;31.50;17.00;;;10.20;99.90;;;;;;4344176;33;20150;-63
2021/05/18 03:02:25;;;;;;;30.33;17.17;;;10.10;99.90;;;;;;4347142;33;20504;-63
2021/05/18 03:04:51;;;;;;;28.50;17.43;;;10.10;99.90;;;;;;4346025;33;20168;-63
2021/05/18 03:07:18;;;;;;;31.73;18.03;;;10.10;99.90;;;;;;4346489;33;20163;-64
2021/05/18 03:09:44;;;;;;;29.83;18.30;;;10.00;99.90;;;;;;4344234;33;20162;-63
2021/05/18 03:12:11;;;;;;;34.13;20.70;;;10.10;99.90;;;;;;4345034;33;20659;-63
2021/05/18 03:14:37;;;;;;;37.10;20.47;;;10.10;99.90;;;;;;4347344;33;20277;-63
2021/05/18 03:17:05;;;;;;;32.27;18.33;;;10.10;99.90;;;;;;4345103;33;20199;-63
2021/05/18 03:19:31;;;;;;;30.00;18.70;;;10.00;99.90;;;;;;4345319;33;20175;-63
2021/05/18 03:21:58;;;;;;;29.30;19.17;;;10.10;99.90;;;;;;4346197;33;20144;-63
2021/05/18 03:24:24;;;;;;;37.67;20.37;;;10.10;99.90;;;;;;4345373;33;20276;-64
2021/05/18 03:26:51;;;;;;;32.57;18.50;;;10.10;99.90;;;;;;4346407;33;20227;-63
2021/05/18 03:29:21;;;;;;;35.53;19.13;;;10.10;99.90;;;;;;4344166;33;20210;-64
2021/05/18 03:34:34;;;;;;;29.90;18.67;;;10.20;99.90;;;;;;4345189;33;20175;-64
2021/05/18 03:37:05;;;;;;;32.97;19.47;;;10.20;99.90;;;;;;4356585;33;20224;-64
2021/05/18 03:39:32;;;;;;;30.83;19.23;;;10.20;99.90;;;;;;4350128;32;20180;-64
2021/05/18 03:42:03;;;;;;;31.63;19.70;;;10.20;99.90;;;;;;4347063;33;20220;-64
2021/05/18 03:44:49;;;;;;;29.23;19.13;;;10.20;99.90;;;;;;4348091;33;20152;-63
2021/05/18 03:52:53;;;;;;;33.27;20.37;;;10.30;99.90;;;;;;4347154;33;20492;-64
2021/05/18 04:03:39;;;;;;;40.17;20.37;;;10.30;99.90;;;;;;4344690;33;20206;-64
2021/05/18 04:17:03;;;;;;;35.80;20.23;;;10.40;99.90;;;;;;4333127;33;20156;-65
2021/05/18 04:19:34;;;;;;;32.87;20.10;;;10.50;99.90;;;;;;4344120;33;20184;-64
2021/05/18 04:38:59;;;;;;;42.73;22.47;;;10.60;99.90;;;;;;4344050;33;20163;-64
2021/05/18 04:41:49;;;;;;;31.23;21.73;;;10.70;99.90;;;;;;4330888;33;20233;-62
2021/05/18 04:52:26;;;;;;;36.07;23.07;;;10.80;99.90;;;;;;4331089;33;20200;-65
2021/05/18 05:00:24;;;;;;;33.17;21.23;;;10.80;99.90;;;;;;4345134;33;20179;-64
2021/05/18 05:03:04;;;;;;;40.10;24.43;;;10.90;99.90;;;;;;4348425;33;20228;-64
2021/05/18 05:08:18;;;;;;;37.97;22.67;;;10.90;99.90;;;;;;4344830;33;20493;-64
2021/05/18 05:16:14;;;;;;;44.17;24.50;;;11.10;99.90;;;;;;4346571;33;20199;-63
2021/05/18 05:18:40;;;;;;;35.07;23.63;;;11.10;99.90;;;;;;4346891;33;20161;-63
2021/05/18 05:21:07;;;;;;;32.60;24.23;;;11.10;99.90;;;;;;4346847;33;20214;-63
2021/05/18 05:23:33;;;;;;;33.33;22.57;;;11.10;99.90;;;;;;4348020;33;20660;-63
2021/05/18 05:26:00;;;;;;;33.70;23.37;;;11.30;99.90;;;;;;4344027;33;20298;-64
2021/05/18 05:28:26;;;;;;;37.13;22.77;;;11.40;99.90;;;;;;4343673;33;20149;-63
2021/05/18 05:30:53;;;;;;;36.03;23.80;;;11.50;99.90;;;;;;4336318;33;20148;-63
2021/05/18 05:33:19;;;;;;;43.80;23.60;;;11.50;99.90;;;;;;4339661;33;20141;-63
2021/05/18 05:35:45;;;;;;;36.20;24.37;;;11.50;99.90;;;;;;4344572;33;20248;-64
2021/05/18 05:38:15;;;;;;;38.80;25.93;;;11.50;99.90;;;;;;4344766;33;20648;-63
2021/05/18 05:40:41;;;;;;;37.80;24.47;;;11.50;99.90;;;;;;4344560;33;20650;-64
2021/05/18 05:43:09;;;;;;;36.47;25.50;;;11.60;99.90;;;;;;4342853;33;20208;-64
2021/05/18 05:45:36;;;;;;;38.87;22.70;;;11.70;99.90;;;;;;4342732;33;20152;-65
2021/05/18 05:48:04;;;;;;;35.37;23.87;;;11.80;99.90;;;;;;4344640;33;20220;-64
2021/05/18 05:50:30;;;;;;;38.07;24.33;;;11.90;99.90;;;;;;4343315;33;20153;-64
2021/05/18 05:52:57;;;;;;;39.13;25.77;;;12.00;99.90;;;;;;4340871;33;20161;-64
2021/05/18 05:55:23;;;;;;;42.90;26.93;;;12.00;99.90;;;;;;4338655;33;20235;-64
2021/05/18 05:57:49;;;;;;;42.80;25.30;;;12.00;99.90;;;;;;4333264;33;20175;-66
2021/05/18 06:00:17;;;;;;;45.87;24.10;;;11.90;99.90;;;;;;4332530;33;20164;-63
2021/05/18 06:02:43;;;;;;;36.50;22.60;;;11.80;99.90;;;;;;4331356;33;20255;-64
2021/05/18 06:05:10;;;;;;;40.23;25.43;;;11.80;99.90;;;;;;4329492;33;20521;-64
2021/05/18 06:07:37;;;;;;;33.37;23.50;;;11.70;99.90;;;;;;4330657;33;20175;-64
2021/05/18 06:10:11;;;;;;;35.87;23.50;;;11.90;99.90;;;;;;4332572;33;20490;-63
2021/05/18 06:35:21;;;;;;;27.87;20.33;;;13.40;99.90;;;;;;4299605;33;20606;-64
2021/05/18 06:43:16;;;;;;;31.47;21.63;;;14.00;99.90;;;;;;4300569;33;20248;-64
2021/05/18 06:48:28;;;;;;;26.90;19.27;;;15.00;99.90;;;;;;4300085;33;20178;-63
2021/05/18 06:50:54;;;;;;;23.97;17.87;;;15.60;99.90;;;;;;4299432;33;20166;-63
2021/05/18 06:53:20;;;;;;;26.63;18.30;;;15.50;99.90;;;;;;4304287;33;20597;-63
2021/05/18 06:55:48;;;;;;;24.23;17.43;;;15.40;99.90;;;;;;4313221;33;20165;-64
2021/05/18 06:58:18;;;;;;;20.53;16.53;;;15.40;99.90;;;;;;4315713;33;20219;-63
2021/05/18 07:00:45;;;;;;;22.80;16.97;;;15.20;99.90;;;;;;4311223;33;20163;-64
2021/05/18 07:03:17;;;;;;;22.40;16.27;;;15.30;99.90;;;;;;4315496;33;20180;-62
2021/05/18 07:05:47;;;;;;;21.40;14.43;;;15.20;99.90;;;;;;4330943;33;20141;-63
2021/05/18 07:10:57;;;;;;;17.20;13.70;;;14.80;99.90;;;;;;4344592;32;20216;-63
2021/05/18 07:13:23;;;;;;;19.17;12.70;;;14.40;99.90;;;;;;4355258;32;20736;-62
2021/05/18 07:15:49;;;;;;;19.87;14.40;;;14.40;99.90;;;;;;4347910;33;20206;-63
2021/05/18 07:18:16;;;;;;;17.83;13.67;;;14.50;99.90;;;;;;4357105;33;20164;-63
2021/05/18 07:20:42;;;;;;;20.60;13.13;;;15.10;99.90;;;;;;4348628;33;20144;-63
2021/05/18 07:23:11;;;;;;;15.83;11.10;;;15.80;98.30;;;;;;4352171;32;20158;-64
2021/05/18 07:25:38;;;;;;;14.17;9.97;;;17.40;95.60;;;;;;4352307;33;20166;-63
2021/05/18 07:28:07;;;;;;;13.77;9.33;;;18.50;93.80;;;;;;4354485;33;20160;-63
2021/05/18 07:30:34;;;;;;;15.20;9.70;;;17.90;92.50;;;;;;4348302;33;20250;-63
2021/05/18 07:33:00;;;;;;;14.03;7.90;;;19.60;93.00;;;;;;4348133;33;20168;-63
2021/05/18 07:35:27;;;;;;;9.13;6.13;;;23.20;79.20;;;;;;4347615;33;20569;-63
2021/05/18 07:37:53;;;;;;;9.73;7.17;;;26.30;72.40;;;;;;4348025;33;20204;-64
2021/05/18 07:40:24;;;;;;;12.20;7.13;;;26.90;54.30;;;;;;4348254;33;20179;-64
2021/05/18 07:42:52;;;;;;;10.07;7.70;;;26.40;53.40;;;;;;4348007;33;20220;-64
2021/05/18 07:45:19;;;;;;;12.17;8.77;;;23.50;64.40;;;;;;4341005;32;20188;-64
2021/05/18 07:47:52;;;;;;;13.43;8.40;;;23.00;67.20;;;;;;4341339;33;20272;-64
2021/05/18 07:50:34;;;;;;;10.40;8.10;;;22.50;72.10;;;;;;4339915;32;20168;-64
2021/05/18 08:07:07;;;;;;;14.07;9.97;;;17.60;85.50;;;;;;4341185;32;20199;-64
2021/05/18 08:09:38;;;;;;;17.10;10.83;;;16.60;90.90;;;;;;4354541;33;20178;-62
2021/05/18 08:12:09;;;;;;;16.67;11.17;;;15.80;93.40;;;;;;4346487;33;20141;-64
2021/05/18 08:14:38;;;;;;;19.20;12.07;;;14.70;97.10;;;;;;4352940;33;20160;-63
2021/05/18 09:41:58;;;;;;;5.87;4.67;;;35.50;38.00;;;;;;4271496;33;20234;-64
2021/05/18 09:49:33;;;;;;;6.73;4.87;;;19.90;79.10;;;;;;4271988;33;20218;-64
2021/05/18 10:15:27;;;;;;;6.07;3.90;;;18.60;85.50;;;;;;4299858;33;20183;-64
2021/05/18 10:36:38;;;;;;;5.50;4.10;;;18.20;80.30;;;;;;4271046;33;20529;-63
2021/05/18 10:39:19;;;;;;;6.13;4.00;;;17.70;83.40;;;;;;4270830;33;20237;-63
2021/05/18 10:41:46;;;;;;;9.10;3.67;;;16.70;85.30;;;;;;4270153;33;20163;-64
2021/05/18 10:44:13;;;;;;;6.07;4.50;;;16.60;89.50;;;;;;4270874;33;20227;-63
2021/05/18 10:46:50;;;;;;;9.60;5.70;;;16.50;89.90;;;;;;4274348;33;20154;-64
2021/05/18 10:49:32;;;;;;;6.93;5.07;;;16.80;90.00;;;;;;4285256;33;20225;-64
2021/05/18 10:52:00;;;;;;;9.40;4.70;;;17.20;90.00;;;;;;4285062;33;20155;-64
2021/05/18 10:54:32;;;;;;;7.73;5.63;;;17.00;90.80;;;;;;4288172;33;20253;-64
2021/05/18 10:57:11;;;;;;;8.23;5.03;;;17.00;89.90;;;;;;4313760;33;20149;-64
2021/05/18 10:59:40;;;;;;;7.17;4.80;;;17.10;88.40;;;;;;4345385;33;20632;-64
2021/05/18 11:02:09;;;;;;;5.60;4.53;;;17.30;89.80;;;;;;4344098;33;20164;-64
2021/05/18 11:04:37;;;;;;;5.23;4.30;;;17.30;86.70;;;;;;4345044;33;20141;-65
2021/05/18 11:07:09;;;;;;;7.53;3.93;;;17.20;86.60;;;;;;4345163;33;20169;-63
2021/05/18 11:09:36;;;;;;;6.80;4.07;;;16.70;88.40;;;;;;4345384;33;20207;-64
2021/05/18 11:12:10;;;;;;;8.67;4.37;;;16.60;88.60;;;;;;4344053;33;20156;-63
2021/05/18 11:14:42;;;;;;;7.13;3.23;;;16.80;88.10;;;;;;4345293;33;20137;-63
2021/05/18 11:17:14;;;;;;;7.30;3.53;;;17.20;83.20;;;;;;4345221;33;20191;-63
2021/05/18 11:19:53;;;;;;;6.33;4.00;;;17.00;83.80;;;;;;4345431;33;20464;-63
2021/05/18 11:25:02;;;;;;;4.80;3.87;;;17.00;84.80;;;;;;4345843;33;20472;-63
2021/05/18 11:27:30;;;;;;;6.77;4.10;;;16.70;85.60;;;;;;4345168;33;20550;-63
2021/05/18 11:29:56;;;;;;;6.17;3.57;;;16.70;89.80;;;;;;4345214;33;20203;-63
2021/05/18 11:32:22;;;;;;;5.57;3.43;;;17.20;86.20;;;;;;4344611;33;20164;-63
2021/05/18 11:34:58;;;;;;;8.30;3.37;;;18.00;85.20;;;;;;4345580;33;20537;-63
2021/05/18 11:37:29;;;;;;;4.53;3.07;;;18.60;80.40;;;;;;4345258;33;20480;-62
2021/05/18 11:40:23;;;;;;;3.83;2.73;;;17.80;77.80;;;;;;4345300;33;20175;-63
2021/05/18 11:42:50;;;;;;;7.13;2.70;;;18.30;79.70;;;;;;4319171;33;20209;-63
2021/05/18 11:45:21;;;;;;;3.90;2.40;;;18.50;80.00;;;;;;4313987;33;20165;-63
2021/05/18 11:47:49;;;;;;;3.33;2.03;;;18.60;74.00;;;;;;4313623;33;20146;-63
2021/05/18 11:50:24;;;;;;;3.37;1.93;;;18.30;72.40;;;;;;4314182;33;20150;-64
2021/05/18 11:52:52;;;;;;;8.10;2.00;;;18.30;75.30;;;;;;4314220;33;20585;-65
2021/05/18 11:55:26;;;;;;;4.70;2.13;;;18.20;72.10;;;;;;4313285;33;20169;-64
2021/05/18 11:57:54;;;;;;;5.13;2.33;;;18.20;78.10;;;;;;4316257;33;20193;-64
2021/05/18 12:00:23;;;;;;;4.40;2.23;;;18.50;74.00;;;;;;4317270;33;20142;-64
2021/05/18 12:02:59;;;;;;;3.83;2.50;;;18.40;73.30;;;;;;4317347;33;20196;-64
2021/05/18 12:05:26;;;;;;;5.50;2.07;;;18.80;77.40;;;;;;4319788;33;20385;-64
2021/05/18 12:07:53;;;;;;;3.70;1.87;;;19.40;72.80;;;;;;4315092;33;20157;-64
2021/05/18 12:10:35;;;;;;;2.97;2.43;;;19.30;67.90;;;;;;4318079;33;20158;-65
2021/05/18 12:13:05;;;;;;;3.27;2.47;;;19.10;70.70;;;;;;4314969;33;20212;-66
2021/05/18 12:15:32;;;;;;;5.10;2.53;;;18.70;71.10;;;;;;4312873;33;20158;-65
2021/05/18 12:17:59;;;;;;;2.53;2.00;;;18.00;75.50;;;;;;4321060;33;20157;-64
2021/05/18 12:20:29;;;;;;;3.60;2.27;;;17.90;76.10;;;;;;4331989;33;20149;-64
2021/05/18 12:22:55;;;;;;;6.67;2.83;;;17.90;73.30;;;;;;4328903;33;20197;-64
2021/05/18 12:25:32;;;;;;;4.23;2.13;;;17.40;73.90;;;;;;4332215;33;20192;-63
2021/05/18 12:28:13;;;;;;;5.53;2.70;;;17.60;80.10;;;;;;4327871;33;20200;-63
2021/05/18 12:30:42;;;;;;;5.40;3.40;;;17.80;79.90;;;;;;4328920;33;20160;-65
2021/05/18 12:33:09;;;;;;;4.37;3.10;;;17.70;76.20;;;;;;4327838;33;20141;-66
2021/05/18 12:35:36;;;;;;;4.27;2.53;;;17.40;77.00;;;;;;4329456;33;20174;-63
2021/05/18 12:38:15;;;;;;;5.83;3.00;;;17.10;78.50;;;;;;4332479;33;20498;-64
2021/05/18 12:40:44;;;;;;;5.03;2.50;;;16.80;80.10;;;;;;4329736;33;20318;-63
2021/05/18 12:43:13;;;;;;;4.60;2.80;;;17.00;80.80;;;;;;4329623;33;20295;-63
2021/05/18 12:45:42;;;;;;;6.07;2.97;;;17.20;81.40;;;;;;4330973;33;20142;-65
2021/05/18 12:48:12;;;;;;;4.73;2.90;;;17.50;79.50;;;;;;4331436;33;20158;-65
2021/05/18 12:50:41;;;;;;;5.80;3.07;;;17.40;79.20;;;;;;4319278;33;20160;-65
2021/05/18 12:53:22;;;;;;;7.80;2.90;;;17.10;78.20;;;;;;4317356;33;20154;-65
2021/05/18 12:55:49;;;;;;;5.17;2.77;;;16.90;78.60;;;;;;4328650;33;20447;-64
2021/05/18 12:58:25;;;;;;;4.57;2.83;;;17.00;76.30;;;;;;4332583;33;20588;-64
2021/05/18 13:00:52;;;;;;;6.43;3.17;;;16.90;78.10;;;;;;4332018;33;20221;-64
2021/05/18 13:03:24;;;;;;;2.60;2.40;;;17.10;78.00;;;;;;4338387;33;20176;-64
2021/05/18 13:05:54;;;;;;;5.40;2.73;;;17.20;76.60;;;;;;4343394;33;20208;-65
2021/05/18 13:08:22;;;;;;;5.13;2.20;;;17.30;73.70;;;;;;4341949;33;20687;-64
2021/05/18 13:10:52;;;;;;;5.17;2.50;;;17.30;74.50;;;;;;4342009;33;20153;-63
2021/05/18 13:13:23;;;;;;;3.10;2.20;;;17.30;77.50;;;;;;4345031;33;20169;-64
2021/05/18 13:15:51;;;;;;;2.77;2.20;;;17.50;77.20;;;;;;4344583;33;20519;-63
2021/05/18 13:18:18;;;;;;;3.43;1.93;;;17.60;74.00;;;;;;4345343;33;20605;-65
2021/05/18 13:20:47;;;;;;;3.90;2.23;;;17.50;73.40;;;;;;4345345;33;20191;-64
2021/05/18 13:23:22;;;;;;;4.57;2.13;;;17.50;74.60;;;;;;4345516;33;20952;-65
2021/05/18 13:28:36;;;;;;;3.23;2.17;;;17.30;74.30;;;;;;4346297;33;20159;-65
2021/05/18 13:31:03;;;;;;;4.13;2.03;;;17.10;75.80;;;;;;4342461;33;20168;-65
2021/05/18 13:33:30;;;;;;;7.30;2.20;;;17.10;76.40;;;;;;4346601;33;20164;-65
2021/05/18 13:35:59;;;;;;;3.53;2.00;;;17.60;77.20;;;;;;4344188;33;20176;-66
2021/05/18 13:38:25;;;;;;;5.20;2.33;;;17.70;75.00;;;;;;4343757;33;20150;-64
2021/05/18 13:40:52;;;;;;;8.30;2.73;;;17.40;74.40;;;;;;4345527;33;20140;-66
2021/05/18 13:43:21;;;;;;;2.83;1.60;;;16.90;73.60;;;;;;4344991;33;20201;-63
2021/05/18 13:45:48;;;;;;;4.17;2.50;;;16.70;75.90;;;;;;4344478;33;20239;-64
2021/05/18 13:48:15;;;;;;;2.77;2.03;;;16.90;78.10;;;;;;4346085;33;20141;-67
2021/05/18 13:50:41;;;;;;;3.50;2.33;;;17.20;77.20;;;;;;4345276;33;20176;-65
2021/05/18 13:53:08;;;;;;;6.97;2.63;;;17.30;76.90;;;;;;4346008;33;20162;-65
2021/05/18 13:55:34;;;;;;;6.20;2.30;;;17.10;76.70;;;;;;4339607;33;20308;-63
2021/05/18 13:58:02;;;;;;;3.87;1.80;;;17.30;79.80;;;;;;4337582;33;20677;-66
2021/05/18 14:00:28;;;;;;;5.53;1.97;;;17.50;76.80;;;;;;4337317;33;20208;-64
2021/05/18 14:02:57;;;;;;;2.73;1.77;;;17.40;75.20;;;;;;4338497;33;20172;-65
2021/05/18 14:05:27;;;;;;;1.67;1.30;;;17.20;75.00;;;;;;4334891;33;20150;-65
2021/05/18 14:08:24;;;;;;;2.40;1.30;;;16.80;72.20;;;;;;4336379;33;20157;-65
2021/05/18 14:10:56;;;;;;;3.50;1.37;;;16.40;75.00;;;;;;4331736;33;20264;-66
2021/05/18 14:13:26;;;;;;;2.87;1.37;;;16.20;76.50;;;;;;4330031;33;20149;-63
2021/05/18 14:15:52;;;;;;;4.73;1.30;;;16.00;78.20;;;;;;4329344;33;20164;-64
2021/05/18 14:18:20;;;;;;;5.37;1.80;;;16.30;78.30;;;;;;4329802;33;20199;-64
2021/05/18 14:21:02;;;;;;;4.13;1.10;;;16.50;78.40;;;;;;4329899;33;20146;-64
2021/05/18 14:23:34;;;;;;;3.90;1.03;;;16.80;77.20;;;;;;4330609;33;20155;-66
2021/05/18 14:26:00;;;;;;;1.57;1.10;;;17.10;76.10;;;;;;4330533;33;20203;-65
2021/05/18 14:28:27;;;;;;;1.80;1.13;;;17.00;74.30;;;;;;4330731;33;20176;-64
2021/05/18 14:30:56;;;;;;;1.50;1.20;;;16.80;75.60;;;;;;4331028;33;20160;-65
2021/05/18 14:33:23;;;;;;;2.97;1.00;;;16.70;76.10;;;;;;4330892;33;20162;-66
2021/05/18 14:35:49;;;;;;;3.83;1.20;;;16.70;77.50;;;;;;4327899;33;20161;-64
2021/05/18 14:38:18;;;;;;;3.40;1.47;;;17.10;75.70;;;;;;4331072;33;20141;-65
2021/05/18 14:46:26;;;;;;;3.03;1.50;;;17.00;76.90;;;;;;4330621;33;20304;-66
2021/05/18 14:54:43;;;;;;;1.97;1.27;;;17.30;76.00;;;;;;4327354;33;20206;-68
2021/05/18 14:57:10;;;;;;;4.53;1.20;;;16.90;76.60;;;;;;4337908;33;20696;-65
2021/05/18 14:59:38;;;;;;;6.97;1.53;;;16.90;75.70;;;;;;4332233;33;20187;-65
2021/05/18 15:02:27;;;;;;;5.40;1.67;;;16.50;76.70;;;;;;4340976;33;20203;-65
2021/05/18 15:04:54;;;;;;;6.57;1.70;;;16.40;78.80;;;;;;4328981;33;20224;-65
2021/05/18 15:07:20;;;;;;;3.73;1.73;;;16.30;78.00;;;;;;4334332;33;20488;-65
2021/05/18 15:09:49;;;;;;;2.10;1.50;;;16.10;79.20;;;;;;4330584;33;20169;-65
2021/05/18 15:12:15;;;;;;;3.43;1.53;;;15.90;80.40;;;;;;4329798;33;20149;-65
2021/05/18 15:14:42;;;;;;;2.43;1.30;;;15.50;81.50;;;;;;4330938;33;20602;-63
2021/05/18 15:17:08;;;;;;;3.70;1.60;;;15.50;81.10;;;;;;4331009;33;20235;-65
2021/05/18 15:19:38;;;;;;;2.90;1.57;;;15.40;80.70;;;;;;4330372;33;20184;-65
2021/05/18 15:22:09;;;;;;;4.30;1.60;;;15.30;83.10;;;;;;4330325;33;20222;-65
2021/05/18 15:24:35;;;;;;;6.87;1.80;;;15.50;81.80;;;;;;4330208;33;20586;-65
2021/05/18 15:27:03;;;;;;;2.50;1.53;;;15.60;82.10;;;;;;4329050;33;20173;-65
2021/05/18 15:29:40;;;;;;;2.53;1.57;;;15.70;82.20;;;;;;4328349;33;20181;-64
2021/05/18 15:32:07;;;;;;;1.87;1.20;;;15.80;81.00;;;;;;4328642;33;20212;-64
2021/05/18 15:34:35;;;;;;;3.17;1.30;;;15.90;78.80;;;;;;4330370;33;20172;-66
2021/05/18 15:37:03;;;;;;;4.20;1.30;;;15.70;80.10;;;;;;4330389;33;20193;-64
2021/05/18 15:39:35;;;;;;;2.07;1.40;;;15.80;79.30;;;;;;4330571;33;20207;-65
2021/05/18 15:42:01;;;;;;;2.27;1.00;;;15.90;78.80;;;;;;4330527;33;20207;-66
2021/05/18 15:44:28;;;;;;;2.47;1.23;;;16.10;79.00;;;;;;4331434;33;20270;-64
2021/05/18 15:46:54;;;;;;;5.53;2.07;;;16.30;79.50;;;;;;4331063;33;20234;-64
2021/05/18 15:49:29;;;;;;;1.37;0.90;;;16.60;78.00;;;;;;4330741;33;20553;-66
2021/05/18 15:51:56;;;;;;;2.43;1.03;;;16.60;76.40;;;;;;4330371;33;20231;-64
2021/05/18 15:54:22;;;;;;;2.13;1.10;;;16.70;76.40;;;;;;4332607;33;20199;-66
2021/05/18 15:56:50;;;;;;;3.40;1.13;;;16.70;76.60;;;;;;4346488;33;20177;-66
2021/05/18 15:59:17;;;;;;;3.10;1.40;;;16.50;74.90;;;;;;4344874;33;20217;-65
2021/05/18 16:01:44;;;;;;;2.83;1.60;;;16.20;76.20;;;;;;4345817;33;20658;-64
2021/05/18 16:04:11;;;;;;;4.60;1.30;;;16.20;77.10;;;;;;4345769;33;20145;-64
2021/05/18 16:06:43;;;;;;;2.53;1.07;;;15.80;77.70;;;;;;4345944;33;20175;-65
2021/05/18 16:09:13;;;;;;;2.07;1.13;;;15.70;78.80;;;;;;4344915;33;20173;-64
2021/05/18 16:11:40;;;;;;;2.30;1.07;;;15.80;79.20;;;;;;4345688;33;20171;-64
2021/05/18 16:14:08;;;;;;;4.03;1.33;;;15.80;79.90;;;;;;4343890;33;20153;-66
2021/05/18 16:16:35;;;;;;;4.17;1.13;;;16.00;79.10;;;;;;4340530;33;20521;-65
2021/05/18 16:19:02;;;;;;;3.40;1.20;;;16.00;80.00;;;;;;4342810;33;20551;-64
2021/05/18 16:21:28;;;;;;;3.20;1.20;;;16.10;79.80;;;;;;4345600;33;20795;-64
2021/05/18 16:23:56;;;;;;;2.03;1.20;;;16.20;78.20;;;;;;4345145;33;20200;-65
2021/05/18 16:26:24;;;;;;;4.13;1.13;;;16.50;80.20;;;;;;4343114;33;20155;-65
2021/05/18 16:28:51;;;;;;;4.33;1.43;;;16.60;78.00;;;;;;4344224;33;20173;-64
2021/05/18 16:31:19;;;;;;;2.03;1.43;;;16.60;78.00;;;;;;4343795;33;20153;-65
2021/05/18 16:33:46;;;;;;;2.23;1.27;;;16.50;79.70;;;;;;4344710;33;20239;-64
2021/05/18 16:36:15;;;;;;;3.23;1.30;;;16.50;79.40;;;;;;4343461;33;20153;-65
2021/05/18 16:38:42;;;;;;;3.03;1.53;;;16.60;78.50;;;;;;4345647;33;20158;-65
2021/05/18 16:41:09;;;;;;;3.90;1.33;;;16.40;78.40;;;;;;4345537;33;20489;-65
2021/05/18 16:43:35;;;;;;;4.93;1.20;;;16.00;80.00;;;;;;4345507;33;20164;-65
2021/05/18 16:46:03;;;;;;;3.93;1.37;;;16.00;79.60;;;;;;4354104;33;20222;-65
2021/05/18 16:48:31;;;;;;;2.17;1.00;;;16.10;77.30;;;;;;4353043;32;20150;-64
2021/05/18 16:51:00;;;;;;;4.67;1.40;;;16.00;77.70;;;;;;4347098;33;20171;-64
2021/05/18 16:53:31;;;;;;;4.10;1.40;;;15.70;77.70;;;;;;4350172;33;20157;-65
2021/05/18 16:56:07;;;;;;;1.73;1.10;;;15.80;78.50;;;;;;4351017;33;20179;-65
2021/05/18 16:58:38;;;;;;;3.30;1.47;;;15.70;80.40;;;;;;4349734;33;20152;-65
2021/05/18 17:01:07;;;;;;;5.27;1.70;;;15.60;79.80;;;;;;4349317;33;20227;-64
2021/05/18 17:03:37;;;;;;;2.27;1.30;;;15.40;80.70;;;;;;4355857;33;20560;-65
2021/05/18 17:06:08;;;;;;;5.03;1.17;;;15.50;80.00;;;;;;4347217;33;20554;-65
2021/05/18 17:08:41;;;;;;;5.40;1.73;;;15.50;80.50;;;;;;4345049;33;20154;-66
2021/05/18 17:11:08;;;;;;;3.60;1.30;;;15.70;80.60;;;;;;4345937;33;20581;-64
2021/05/18 17:13:34;;;;;;;2.13;1.60;;;15.60;80.90;;;;;;4346351;33;20271;-65
2021/05/18 17:16:01;;;;;;;1.73;1.20;;;15.60;82.00;;;;;;4345132;33;20240;-67
2021/05/18 17:18:30;;;;;;;3.73;1.40;;;15.50;82.50;;;;;;4345284;33;20219;-65
2021/05/18 17:20:59;;;;;;;5.13;1.20;;;15.70;82.00;;;;;;4343233;33;20618;-65
2021/05/18 17:23:25;;;;;;;2.10;1.17;;;15.60;81.40;;;;;;4344706;33;20153;-64